Terminal Aerodrome Forecast
Issued by NWS

Current Version | Previous Version | Text Only | Print | Product List | Glossary On
Versions: 1 2 3 4 5 6 7 8 9 10 11 12 13
473
FTUS45 KRIW 240527
TAFRKS
TAF
KRKS 240527Z 2406/2506 24010KT P6SM SKC
     FM241600 26018G28KT P6SM FEW080
     FM242100 26022G32KT P6SM SCT080
     FM250200 26014KT P6SM VCTS SCT050 BKN070CB=

USA.gov is the U.S. government's official web portal to all federal, state and local government web resources and services.